sensor_id;sensor_type;location;lat;lon;timestamp;pressure;altitude;pressure_sealevel;temperature;humidity
59272;BME280;45043;51.068;7.026;2022-09-02T00:02:34;100516.69;;;16.05;35.42
59272;BME280;45043;51.068;7.026;2022-09-02T00:05:35;100518.31;;;16.06;35.38
59272;BME280;45043;51.068;7.026;2022-09-02T00:08:36;100516.44;;;16.06;35.05
59272;BME280;45043;51.068;7.026;2022-09-02T00:11:38;100511.66;;;16.08;35.37
59272;BME280;45043;51.068;7.026;2022-09-02T00:14:39;100498.25;;;15.96;35.20
59272;BME280;45043;51.068;7.026;2022-09-02T00:17:39;100510.16;;;16.00;35.74
59272;BME280;45043;51.068;7.026;2022-09-02T00:20:42;100507.47;;;16.00;35.96
59272;BME280;45043;51.068;7.026;2022-09-02T00:23:44;100506.41;;;16.01;35.71
59272;BME280;45043;51.068;7.026;2022-09-02T00:26:45;100501.06;;;16.01;35.53
59272;BME280;45043;51.068;7.026;2022-09-02T00:29:46;100490.69;;;15.93;35.35
59272;BME280;45043;51.068;7.026;2022-09-02T00:32:47;100489.63;;;15.94;35.24
59272;BME280;45043;51.068;7.026;2022-09-02T00:35:48;100490.34;;;16.01;36.26
59272;BME280;45043;51.068;7.026;2022-09-02T00:38:49;100496.84;;;16.06;35.86
59272;BME280;45043;51.068;7.026;2022-09-02T00:41:50;100496.50;;;16.02;36.21
59272;BME280;45043;51.068;7.026;2022-09-02T00:44:51;100491.16;;;16.02;36.05
59272;BME280;45043;51.068;7.026;2022-09-02T00:47:52;100490.34;;;16.01;35.72
59272;BME280;45043;51.068;7.026;2022-09-02T00:50:53;100484.28;;;15.94;36.21
59272;BME280;45043;51.068;7.026;2022-09-02T00:53:53;100494.41;;;15.92;36.10
59272;BME280;45043;51.068;7.026;2022-09-02T00:56:54;100488.47;;;15.90;36.17
59272;BME280;45043;51.068;7.026;2022-09-02T01:00:15;100478.56;;;15.91;36.18
59272;BME280;45043;51.068;7.026;2022-09-02T01:03:19;100482.66;;;15.93;35.68
59272;BME280;45043;51.068;7.026;2022-09-02T01:06:23;100483.00;;;15.97;35.97
59272;BME280;45043;51.068;7.026;2022-09-02T01:09:24;100484.88;;;15.85;36.38
59272;BME280;45043;51.068;7.026;2022-09-02T01:12:25;100474.97;;;15.85;36.20
59272;BME280;45043;51.068;7.026;2022-09-02T01:15:27;100486.59;;;15.91;36.25
59272;BME280;45043;51.068;7.026;2022-09-02T01:18:30;100488.00;;;15.93;36.25
59272;BME280;45043;51.068;7.026;2022-09-02T01:21:30;100487.19;;;15.93;35.80
59272;BME280;45043;51.068;7.026;2022-09-02T01:24:32;100474.50;;;15.88;36.09
59272;BME280;45043;51.068;7.026;2022-09-02T01:27:33;100491.03;;;15.85;36.23
59272;BME280;45043;51.068;7.026;2022-09-02T01:30:37;100476.59;;;15.86;35.99
59272;BME280;45043;51.068;7.026;2022-09-02T01:33:40;100472.47;;;15.72;36.40
59272;BME280;45043;51.068;7.026;2022-09-02T01:36:41;100472.47;;;15.72;36.23
59272;BME280;45043;51.068;7.026;2022-09-02T01:39:43;100465.97;;;15.68;36.24
59272;BME280;45043;51.068;7.026;2022-09-02T01:42:45;100469.69;;;15.67;36.36
59272;BME280;45043;51.068;7.026;2022-09-02T01:45:47;100475.25;;;15.65;36.37
59272;BME280;45043;51.068;7.026;2022-09-02T01:48:49;100459.69;;;15.62;36.21
59272;BME280;45043;51.068;7.026;2022-09-02T01:51:53;100470.75;;;15.66;36.49
59272;BME280;45043;51.068;7.026;2022-09-02T01:54:54;100467.22;;;15.65;36.22
59272;BME280;45043;51.068;7.026;2022-09-02T01:57:55;100475.84;;;15.67;36.24
59272;BME280;45043;51.068;7.026;2022-09-02T02:00:56;100463.50;;;15.54;36.16
59272;BME280;45043;51.068;7.026;2022-09-02T02:03:57;100468.88;;;15.54;36.25
59272;BME280;45043;51.068;7.026;2022-09-02T02:06:58;100466.75;;;15.57;36.81
59272;BME280;45043;51.068;7.026;2022-09-02T02:09:59;100463.97;;;15.51;36.64
59272;BME280;45043;51.068;7.026;2022-09-02T02:13:02;100468.25;;;15.52;36.47
59272;BME280;45043;51.068;7.026;2022-09-02T02:16:06;100462.31;;;15.50;36.70
59272;BME280;45043;51.068;7.026;2022-09-02T02:19:06;100466.19;;;15.54;36.73
59272;BME280;45043;51.068;7.026;2022-09-02T02:22:07;100464.38;;;15.48;36.47
59272;BME280;45043;51.068;7.026;2022-09-02T02:25:09;100470.47;;;15.56;36.69
59272;BME280;45043;51.068;7.026;2022-09-02T02:28:10;100467.22;;;15.53;36.37
59272;BME280;45043;51.068;7.026;2022-09-02T02:31:11;100466.19;;;15.54;36.43
59272;BME280;45043;51.068;7.026;2022-09-02T02:34:12;100470.56;;;15.49;36.86
59272;BME280;45043;51.068;7.026;2022-09-02T02:37:13;100473.63;;;15.52;36.71
59272;BME280;45043;51.068;7.026;2022-09-02T02:40:17;100470.47;;;15.56;36.63
59272;BME280;45043;51.068;7.026;2022-09-02T02:43:19;100466.47;;;15.46;37.11
59272;BME280;45043;51.068;7.026;2022-09-02T02:46:20;100459.47;;;15.45;36.54
59272;BME280;45043;51.068;7.026;2022-09-02T02:49:20;100475.09;;;15.48;36.24
59272;BME280;45043;51.068;7.026;2022-09-02T02:52:23;100473.91;;;15.44;36.57
59272;BME280;45043;51.068;7.026;2022-09-02T02:55:25;100460.38;;;15.39;36.19
59272;BME280;45043;51.068;7.026;2022-09-02T02:58:26;100472.88;;;15.45;36.25
59272;BME280;45043;51.068;7.026;2022-09-02T03:01:29;100476.00;;;15.42;36.17
59272;BME280;45043;51.068;7.026;2022-09-02T03:04:30;100468.22;;;15.41;36.41
59272;BME280;45043;51.068;7.026;2022-09-02T03:07:31;100454.78;;;15.29;37.24
59272;BME280;45043;51.068;7.026;2022-09-02T03:10:32;100471.66;;;15.29;37.00
59272;BME280;45043;51.068;7.026;2022-09-02T03:13:33;100475.03;;;15.25;36.92
59272;BME280;45043;51.068;7.026;2022-09-02T03:16:35;100457.44;;;15.17;37.18
59272;BME280;45043;51.068;7.026;2022-09-02T03:19:35;100466.41;;;15.23;36.47
59272;BME280;45043;51.068;7.026;2022-09-02T03:22:36;100472.56;;;15.23;36.58
59272;BME280;45043;51.068;7.026;2022-09-02T03:25:42;100467.22;;;15.23;36.80
59272;BME280;45043;51.068;7.026;2022-09-02T03:28:53;100460.69;;;15.19;36.59
59272;BME280;45043;51.068;7.026;2022-09-02T03:31:55;100453.78;;;15.12;36.91
59272;BME280;45043;51.068;7.026;2022-09-02T03:34:56;100459.59;;;15.09;36.92
59272;BME280;45043;51.068;7.026;2022-09-02T03:37:58;100461.13;;;15.16;37.05
59272;BME280;45043;51.068;7.026;2022-09-02T03:40:59;100452.25;;;15.04;36.99
59272;BME280;45043;51.068;7.026;2022-09-02T03:44:01;100469.84;;;15.12;36.92
59272;BME280;45043;51.068;7.026;2022-09-02T03:47:03;100468.06;;;15.05;37.15
59272;BME280;45043;51.068;7.026;2022-09-02T03:50:04;100460.97;;;14.99;36.98
59272;BME280;45043;51.068;7.026;2022-09-02T03:53:07;100460.81;;;14.94;37.19
59272;BME280;45043;51.068;7.026;2022-09-02T03:56:09;100457.31;;;14.94;37.30
59272;BME280;45043;51.068;7.026;2022-09-02T03:59:13;100451.56;;;14.78;37.84
59272;BME280;45043;51.068;7.026;2022-09-02T04:02:14;100460.31;;;14.86;37.55
59272;BME280;45043;51.068;7.026;2022-09-02T04:05:15;100459.13;;;14.81;37.56
59272;BME280;45043;51.068;7.026;2022-09-02T04:08:18;100454.59;;;14.82;37.60
59272;BME280;45043;51.068;7.026;2022-09-02T04:11:21;100459.13;;;14.81;37.57
59272;BME280;45043;51.068;7.026;2022-09-02T04:14:24;100448.94;;;14.72;37.78
59272;BME280;45043;51.068;7.026;2022-09-02T04:17:27;100445.25;;;14.73;37.71
59272;BME280;45043;51.068;7.026;2022-09-02T04:20:28;100441.97;;;14.71;37.62
59272;BME280;45043;51.068;7.026;2022-09-02T04:23:30;100460.94;;;14.69;38.01
59272;BME280;45043;51.068;7.026;2022-09-02T04:26:31;100459.50;;;14.67;38.19
59272;BME280;45043;51.068;7.026;2022-09-02T04:29:33;100459.28;;;14.68;37.84
59272;BME280;45043;51.068;7.026;2022-09-02T04:32:34;100461.38;;;14.66;38.19
59272;BME280;45043;51.068;7.026;2022-09-02T04:35:44;100461.00;;;14.63;37.92
59272;BME280;45043;51.068;7.026;2022-09-02T04:38:49;100454.06;;;14.55;38.09
59272;BME280;45043;51.068;7.026;2022-09-02T04:41:51;100445.50;;;14.46;37.99
59272;BME280;45043;51.068;7.026;2022-09-02T04:44:53;100450.59;;;14.54;38.24
59272;BME280;45043;51.068;7.026;2022-09-02T04:47:56;100441.81;;;14.47;38.55
59272;BME280;45043;51.068;7.026;2022-09-02T04:50:57;100457.75;;;14.54;38.23
59272;BME280;45043;51.068;7.026;2022-09-02T04:53:59;100461.84;;;14.56;38.35
59272;BME280;45043;51.068;7.026;2022-09-02T04:56:59;100447.53;;;14.51;38.32
59272;BME280;45043;51.068;7.026;2022-09-02T05:00:06;100455.03;;;14.61;38.22
59272;BME280;45043;51.068;7.026;2022-09-02T05:03:09;100456.69;;;14.62;38.25
59272;BME280;45043;51.068;7.026;2022-09-02T05:06:15;100458.47;;;14.68;38.30
59272;BME280;45043;51.068;7.026;2022-09-02T05:09:15;100455.78;;;14.68;38.28
59272;BME280;45043;51.068;7.026;2022-09-02T05:12:19;100453.28;;;14.73;38.05
59272;BME280;45043;51.068;7.026;2022-09-02T05:15:27;100450.50;;;14.79;37.83
59272;BME280;45043;51.068;7.026;2022-09-02T05:18:28;100447.81;;;14.79;38.26
59272;BME280;45043;51.068;7.026;2022-09-02T05:21:30;100452.41;;;14.91;38.13
59272;BME280;45043;51.068;7.026;2022-09-02T05:24:31;100454.56;;;15.00;38.02
59272;BME280;45043;51.068;7.026;2022-09-02T05:27:36;100449.34;;;15.05;37.83
59272;BME280;45043;51.068;7.026;2022-09-02T05:30:39;100449.25;;;15.12;37.68
59272;BME280;45043;51.068;7.026;2022-09-02T05:33:41;100443.41;;;15.03;38.14
59272;BME280;45043;51.068;7.026;2022-09-02T05:36:43;100441.59;;;15.16;37.71
59272;BME280;45043;51.068;7.026;2022-09-02T05:39:44;100457.75;;;15.21;37.48
59272;BME280;45043;51.068;7.026;2022-09-02T05:42:45;100459.53;;;15.27;37.23
59272;BME280;45043;51.068;7.026;2022-09-02T05:45:47;100453.28;;;15.33;37.36
59272;BME280;45043;51.068;7.026;2022-09-02T05:48:50;100450.53;;;15.40;37.71
59272;BME280;45043;51.068;7.026;2022-09-02T05:52:11;100447.59;;;15.41;37.20
59272;BME280;45043;51.068;7.026;2022-09-02T05:55:16;100446.69;;;15.47;37.66
59272;BME280;45043;51.068;7.026;2022-09-02T05:58:17;100453.00;;;15.53;37.46
59272;BME280;45043;51.068;7.026;2022-09-02T06:01:18;100452.19;;;15.52;37.75
59272;BME280;45043;51.068;7.026;2022-09-02T06:04:20;100448.38;;;15.60;37.56
59272;BME280;45043;51.068;7.026;2022-09-02T06:07:23;100453.72;;;15.72;37.54
59272;BME280;45043;51.068;7.026;2022-09-02T06:10:25;100452.81;;;15.78;37.71
59272;BME280;45043;51.068;7.026;2022-09-02T06:13:32;100448.97;;;15.86;37.32
59272;BME280;45043;51.068;7.026;2022-09-02T06:16:39;100454.22;;;15.92;37.29
59272;BME280;45043;51.068;7.026;2022-09-02T06:19:44;100452.81;;;16.01;37.24
59272;BME280;45043;51.068;7.026;2022-09-02T06:22:45;100447.69;;;16.12;36.95
59272;BME280;45043;51.068;7.026;2022-09-02T06:25:47;100442.56;;;16.22;36.98
59272;BME280;45043;51.068;7.026;2022-09-02T06:28:48;100436.03;;;16.30;37.04
59272;BME280;45043;51.068;7.026;2022-09-02T06:31:50;100446.88;;;16.46;37.03
59272;BME280;45043;51.068;7.026;2022-09-02T06:34:51;100449.31;;;16.60;36.77
59272;BME280;45043;51.068;7.026;2022-09-02T06:37:52;100446.56;;;16.71;37.01
59272;BME280;45043;51.068;7.026;2022-09-02T06:40:54;100464.78;;;17.38;36.52
59272;BME280;45043;51.068;7.026;2022-09-02T06:44:03;100463.88;;;18.17;35.42
59272;BME280;45043;51.068;7.026;2022-09-02T06:47:05;100447.75;;;18.78;34.26
59272;BME280;45043;51.068;7.026;2022-09-02T06:50:08;100456.06;;;19.25;33.51
59272;BME280;45043;51.068;7.026;2022-09-02T06:53:09;100454.50;;;19.56;33.07
59272;BME280;45043;51.068;7.026;2022-09-02T06:56:12;100460.63;;;19.84;32.58
59272;BME280;45043;51.068;7.026;2022-09-02T06:59:14;100462.91;;;20.02;32.96
59272;BME280;45043;51.068;7.026;2022-09-02T07:02:16;100463.28;;;20.16;32.37
59272;BME280;45043;51.068;7.026;2022-09-02T07:05:17;100459.06;;;20.30;32.22
59272;BME280;45043;51.068;7.026;2022-09-02T07:08:19;100462.34;;;20.43;31.78
59272;BME280;45043;51.068;7.026;2022-09-02T07:11:22;100462.13;;;20.54;31.83
59272;BME280;45043;51.068;7.026;2022-09-02T07:14:25;100456.50;;;20.61;31.90
59272;BME280;45043;51.068;7.026;2022-09-02T07:17:28;100452.75;;;20.67;31.73
59272;BME280;45043;51.068;7.026;2022-09-02T07:20:35;100450.88;;;20.73;31.44
59272;BME280;45043;51.068;7.026;2022-09-02T07:23:37;100442.81;;;20.78;31.56
59272;BME280;45043;51.068;7.026;2022-09-02T07:26:38;100450.13;;;20.82;31.76
59272;BME280;45043;51.068;7.026;2022-09-02T07:29:41;100438.25;;;20.83;31.70
59272;BME280;45043;51.068;7.026;2022-09-02T07:32:45;100436.09;;;20.91;31.44
59272;BME280;45043;51.068;7.026;2022-09-02T07:35:47;100435.06;;;20.97;31.48
59272;BME280;45043;51.068;7.026;2022-09-02T07:38:51;100438.84;;;20.96;31.08
59272;BME280;45043;51.068;7.026;2022-09-02T07:41:54;100434.53;;;21.00;31.44
59272;BME280;45043;51.068;7.026;2022-09-02T07:44:57;100429.13;;;21.05;31.95
59272;BME280;45043;51.068;7.026;2022-09-02T07:47:58;100431.81;;;21.05;32.16
59272;BME280;45043;51.068;7.026;2022-09-02T07:51:00;100433.72;;;21.10;31.98
59272;BME280;45043;51.068;7.026;2022-09-02T07:54:05;100439.13;;;21.15;32.15
59272;BME280;45043;51.068;7.026;2022-09-02T07:57:06;100425.63;;;21.15;32.19
59272;BME280;45043;51.068;7.026;2022-09-02T08:00:09;100431.31;;;21.18;32.23
59272;BME280;45043;51.068;7.026;2022-09-02T08:03:16;100431.84;;;21.20;32.24
59272;BME280;45043;51.068;7.026;2022-09-02T08:06:23;100429.13;;;21.20;32.37
59272;BME280;45043;51.068;7.026;2022-09-02T08:09:26;100430.75;;;21.21;32.38
59272;BME280;45043;51.068;7.026;2022-09-02T08:12:27;100428.59;;;21.23;32.25
59272;BME280;45043;51.068;7.026;2022-09-02T08:15:29;100430.78;;;21.26;32.22
59272;BME280;45043;51.068;7.026;2022-09-02T08:18:32;100430.25;;;21.29;32.82
59272;BME280;45043;51.068;7.026;2022-09-02T08:21:33;100427.78;;;21.28;32.59
59272;BME280;45043;51.068;7.026;2022-09-02T08:24:37;100435.38;;;21.31;32.12
59272;BME280;45043;51.068;7.026;2022-09-02T08:27:38;100425.63;;;21.30;32.31
59272;BME280;45043;51.068;7.026;2022-09-02T08:30:39;100429.16;;;21.30;31.94
59272;BME280;45043;51.068;7.026;2022-09-02T08:33:40;100423.75;;;21.30;31.71
59272;BME280;45043;51.068;7.026;2022-09-02T08:36:41;100419.16;;;21.31;31.75
59272;BME280;45043;51.068;7.026;2022-09-02T08:39:42;100423.47;;;21.32;31.75
59272;BME280;45043;51.068;7.026;2022-09-02T08:42:49;100417.25;;;21.31;32.27
59272;BME280;45043;51.068;7.026;2022-09-02T08:45:51;100422.13;;;21.35;32.59
59272;BME280;45043;51.068;7.026;2022-09-02T08:49:06;100420.25;;;21.30;32.90
59272;BME280;45043;51.068;7.026;2022-09-02T08:52:09;100414.56;;;21.42;32.90
59272;BME280;45043;51.068;7.026;2022-09-02T08:55:22;100405.09;;;21.34;32.76
59272;BME280;45043;51.068;7.026;2022-09-02T08:58:33;100402.69;;;21.38;32.94
59272;BME280;45043;51.068;7.026;2022-09-02T09:08:51;100401.06;;;21.26;32.40
59272;BME280;45043;51.068;7.026;2022-09-02T09:16:10;100403.47;;;21.43;32.59
59272;BME280;45043;51.068;7.026;2022-09-02T09:18:55;100397.78;;;21.40;32.53
59272;BME280;45043;51.068;7.026;2022-09-02T09:21:59;100388.34;;;21.42;32.40
59272;BME280;45043;51.068;7.026;2022-09-02T09:25:08;100385.66;;;21.47;32.21
59272;BME280;45043;51.068;7.026;2022-09-02T09:28:10;100381.34;;;21.51;32.11
59272;BME280;45043;51.068;7.026;2022-09-02T09:31:17;100382.16;;;21.52;32.04
59272;BME280;45043;51.068;7.026;2022-09-02T09:34:18;100385.38;;;21.54;31.78
59272;BME280;45043;51.068;7.026;2022-09-02T09:40:31;100368.91;;;21.61;31.70
59272;BME280;45043;51.068;7.026;2022-09-02T09:43:32;100357.28;;;21.60;31.47
59272;BME280;45043;51.068;7.026;2022-09-02T09:46:32;100367.28;;;21.60;31.76
59272;BME280;45043;51.068;7.026;2022-09-02T09:53:26;100359.16;;;21.54;31.24
59272;BME280;45043;51.068;7.026;2022-09-02T09:56:29;100355.09;;;21.62;30.92
59272;BME280;45043;51.068;7.026;2022-09-02T09:59:42;100360.78;;;21.61;31.28
59272;BME280;45043;51.068;7.026;2022-09-02T10:02:49;100354.56;;;21.65;32.50
59272;BME280;45043;51.068;7.026;2022-09-02T10:05:58;100350.22;;;21.69;33.27
59272;BME280;45043;51.068;7.026;2022-09-02T10:12:30;100342.38;;;21.78;33.61
59272;BME280;45043;51.068;7.026;2022-09-02T10:15:43;100356.09;;;21.97;33.97
59272;BME280;45043;51.068;7.026;2022-09-02T10:18:53;100336.34;;;22.01;33.31
59272;BME280;45043;51.068;7.026;2022-09-02T10:22:10;100349.06;;;22.01;33.33
59272;BME280;45043;51.068;7.026;2022-09-02T10:29:02;100340.13;;;22.00;32.63
59272;BME280;45043;51.068;7.026;2022-09-02T10:35:48;100334.72;;;22.00;32.21
59272;BME280;45043;51.068;7.026;2022-09-02T10:38:53;100326.56;;;22.06;26.58
59272;BME280;45043;51.068;7.026;2022-09-02T10:42:24;100312.19;;;22.25;25.17
59272;BME280;45043;51.068;7.026;2022-09-02T10:45:37;100311.50;;;22.49;23.48
59272;BME280;45043;51.068;7.026;2022-09-02T10:52:35;100310.91;;;22.57;24.16
59272;BME280;45043;51.068;7.026;2022-09-02T10:55:58;100313.16;;;22.45;24.41
59272;BME280;45043;51.068;7.026;2022-09-02T10:59:17;100305.03;;;22.45;23.74
59272;BME280;45043;51.068;7.026;2022-09-02T11:02:31;100304.81;;;22.36;23.23
59272;BME280;45043;51.068;7.026;2022-09-02T11:05:43;100312.91;;;22.41;23.60
59272;BME280;45043;51.068;7.026;2022-09-02T11:08:54;100307.75;;;22.45;24.11
59272;BME280;45043;51.068;7.026;2022-09-02T11:12:14;100298.44;;;22.61;23.60
59272;BME280;45043;51.068;7.026;2022-09-02T11:16:02;100294.72;;;22.91;24.19
59272;BME280;45043;51.068;7.026;2022-09-02T11:25:43;100280.66;;;23.18;23.33
59272;BME280;45043;51.068;7.026;2022-09-02T11:28:54;100285.94;;;23.34;22.91
59272;BME280;45043;51.068;7.026;2022-09-02T11:32:04;100288.28;;;23.45;22.98
59272;BME280;45043;51.068;7.026;2022-09-02T11:35:13;100282.53;;;23.52;23.17
59272;BME280;45043;51.068;7.026;2022-09-02T11:38:56;100289.97;;;23.36;23.03
59272;BME280;45043;51.068;7.026;2022-09-02T11:42:24;100277.25;;;23.37;23.02
59272;BME280;45043;51.068;7.026;2022-09-02T11:45:57;100271.03;;;23.31;22.53
59272;BME280;45043;51.068;7.026;2022-09-02T11:56:04;100261.78;;;23.08;22.62
59272;BME280;45043;51.068;7.026;2022-09-02T11:59:21;100258.94;;;23.23;22.25
59272;BME280;45043;51.068;7.026;2022-09-02T12:02:45;100265.78;;;23.45;21.43
59272;BME280;45043;51.068;7.026;2022-09-02T12:06:05;100258.25;;;23.37;21.63
59272;BME280;45043;51.068;7.026;2022-09-02T12:09:07;100259.91;;;23.38;21.69
59272;BME280;45043;51.068;7.026;2022-09-02T12:12:08;100265.63;;;23.31;21.74
59272;BME280;45043;51.068;7.026;2022-09-02T12:15:16;100268.63;;;23.30;21.72
59272;BME280;45043;51.068;7.026;2022-09-02T12:18:27;100246.47;;;23.22;21.98
59272;BME280;45043;51.068;7.026;2022-09-02T12:21:29;100252.50;;;23.43;21.75
59272;BME280;45043;51.068;7.026;2022-09-02T12:24:57;100243.91;;;23.60;21.22
59272;BME280;45043;51.068;7.026;2022-09-02T12:40:57;100231.56;;;23.92;20.72
59272;BME280;45043;51.068;7.026;2022-09-02T12:44:07;100223.59;;;23.82;20.82
59272;BME280;45043;51.068;7.026;2022-09-02T12:53:39;100224.72;;;23.57;21.01
59272;BME280;45043;51.068;7.026;2022-09-02T12:56:47;100223.03;;;23.61;20.63
59272;BME280;45043;51.068;7.026;2022-09-02T12:59:48;100219.50;;;23.60;21.30
59272;BME280;45043;51.068;7.026;2022-09-02T13:03:01;100205.75;;;23.76;21.19
59272;BME280;45043;51.068;7.026;2022-09-02T13:19:42;100207.19;;;23.49;21.46
59272;BME280;45043;51.068;7.026;2022-09-02T13:33:18;100199.19;;;23.82;21.10
59272;BME280;45043;51.068;7.026;2022-09-02T13:36:25;100196.69;;;23.85;21.15
59272;BME280;45043;51.068;7.026;2022-09-02T13:39:27;100188.53;;;23.85;20.98
59272;BME280;45043;51.068;7.026;2022-09-02T13:42:28;100178.78;;;23.84;20.64
59272;BME280;45043;51.068;7.026;2022-09-02T13:45:32;100182.50;;;23.88;20.55
59272;BME280;45043;51.068;7.026;2022-09-02T13:48:38;100171.31;;;23.95;20.37
59272;BME280;45043;51.068;7.026;2022-09-02T13:51:40;100173.50;;;23.93;21.31
59272;BME280;45043;51.068;7.026;2022-09-02T13:54:50;100163.25;;;23.90;20.87
59272;BME280;45043;51.068;7.026;2022-09-02T13:58:03;100157.25;;;23.93;20.96
59272;BME280;45043;51.068;7.026;2022-09-02T14:04:17;100137.94;;;23.94;21.44
59272;BME280;45043;51.068;7.026;2022-09-02T14:07:23;100158.22;;;24.02;21.60
59272;BME280;45043;51.068;7.026;2022-09-02T14:10:26;100138.47;;;23.78;21.83
59272;BME280;45043;51.068;7.026;2022-09-02T14:13:28;100138.16;;;23.60;21.94
59272;BME280;45043;51.068;7.026;2022-09-02T14:16:31;100145.63;;;23.68;21.39
59272;BME280;45043;51.068;7.026;2022-09-02T14:19:35;100138.53;;;23.73;21.76
59272;BME280;45043;51.068;7.026;2022-09-02T14:22:35;100134.34;;;23.61;21.57
59272;BME280;45043;51.068;7.026;2022-09-02T14:25:37;100132.00;;;23.74;21.86
59272;BME280;45043;51.068;7.026;2022-09-02T14:28:38;100130.25;;;23.83;21.58
59272;BME280;45043;51.068;7.026;2022-09-02T14:31:39;100132.53;;;23.76;22.14
59272;BME280;45043;51.068;7.026;2022-09-02T14:34:44;100126.16;;;23.66;21.82
59272;BME280;45043;51.068;7.026;2022-09-02T14:37:52;100129.94;;;23.84;21.89
59272;BME280;45043;51.068;7.026;2022-09-02T14:41:02;100127.34;;;23.98;21.58
59272;BME280;45043;51.068;7.026;2022-09-02T14:44:11;100118.53;;;24.06;21.14
59272;BME280;45043;51.068;7.026;2022-09-02T14:47:15;100115.91;;;24.34;21.41
59272;BME280;45043;51.068;7.026;2022-09-02T14:50:18;100111.34;;;24.48;20.62
59272;BME280;45043;51.068;7.026;2022-09-02T14:53:21;100109.00;;;24.55;20.42
59272;BME280;45043;51.068;7.026;2022-09-02T14:56:42;100105.19;;;24.56;20.63
59272;BME280;45043;51.068;7.026;2022-09-02T14:59:42;100107.56;;;24.63;20.49
59272;BME280;45043;51.068;7.026;2022-09-02T15:02:44;100108.06;;;24.65;20.83
59272;BME280;45043;51.068;7.026;2022-09-02T15:05:47;100109.97;;;24.64;19.98
59272;BME280;45043;51.068;7.026;2022-09-02T15:08:48;100104.63;;;24.59;20.56
59272;BME280;45043;51.068;7.026;2022-09-02T15:11:52;100099.00;;;24.70;19.66
59272;BME280;45043;51.068;7.026;2022-09-02T15:14:53;100092.16;;;24.58;19.81
59272;BME280;45043;51.068;7.026;2022-09-02T15:17:53;100072.19;;;24.49;19.84
59272;BME280;45043;51.068;7.026;2022-09-02T15:20:54;100084.84;;;24.40;20.12
59272;BME280;45043;51.068;7.026;2022-09-02T15:23:55;100087.75;;;24.30;20.53
59272;BME280;45043;51.068;7.026;2022-09-02T15:26:55;100088.41;;;24.22;20.49
59272;BME280;45043;51.068;7.026;2022-09-02T15:29:55;100073.34;;;24.15;20.43
59272;BME280;45043;51.068;7.026;2022-09-02T15:32:56;100083.41;;;24.29;20.58
59272;BME280;45043;51.068;7.026;2022-09-02T15:36:12;100080.69;;;24.29;19.86
59272;BME280;45043;51.068;7.026;2022-09-02T15:39:13;100079.19;;;24.23;20.40
59272;BME280;45043;51.068;7.026;2022-09-02T15:42:13;100069.22;;;24.18;20.45
59272;BME280;45043;51.068;7.026;2022-09-02T15:45:14;100081.81;;;24.28;20.64
59272;BME280;45043;51.068;7.026;2022-09-02T15:48:14;100068.75;;;24.30;20.44
59272;BME280;45043;51.068;7.026;2022-09-02T15:51:17;100075.75;;;24.17;20.15
59272;BME280;45043;51.068;7.026;2022-09-02T15:54:20;100068.28;;;24.09;20.53
59272;BME280;45043;51.068;7.026;2022-09-02T15:57:21;100065.66;;;24.04;20.62
59272;BME280;45043;51.068;7.026;2022-09-02T16:00:21;100065.00;;;24.12;20.97
59272;BME280;45043;51.068;7.026;2022-09-02T16:03:22;100063.88;;;24.13;21.09
59272;BME280;45043;51.068;7.026;2022-09-02T16:06:23;100066.16;;;24.06;20.74
59272;BME280;45043;51.068;7.026;2022-09-02T16:09:24;100063.81;;;23.99;20.83
59272;BME280;45043;51.068;7.026;2022-09-02T16:12:24;100057.34;;;23.95;20.90
59272;BME280;45043;51.068;7.026;2022-09-02T16:15:25;100068.28;;;23.90;20.99
59272;BME280;45043;51.068;7.026;2022-09-02T16:18:26;100051.28;;;23.84;20.86
59272;BME280;45043;51.068;7.026;2022-09-02T16:21:27;100059.88;;;23.73;21.09
59272;BME280;45043;51.068;7.026;2022-09-02T16:24:28;100053.78;;;23.81;21.32
59272;BME280;45043;51.068;7.026;2022-09-02T16:27:28;100056.22;;;23.82;21.72
59272;BME280;45043;51.068;7.026;2022-09-02T16:30:47;100046.56;;;23.57;21.60
59272;BME280;45043;51.068;7.026;2022-09-02T16:34:05;100050.50;;;23.46;22.04
59272;BME280;45043;51.068;7.026;2022-09-02T16:37:06;100046.25;;;23.40;21.71
59272;BME280;45043;51.068;7.026;2022-09-02T16:40:06;100047.19;;;23.30;21.97
59272;BME280;45043;51.068;7.026;2022-09-02T16:43:07;100044.75;;;23.29;21.74
59272;BME280;45043;51.068;7.026;2022-09-02T16:46:08;100039.13;;;23.25;21.79
59272;BME280;45043;51.068;7.026;2022-09-02T16:49:11;100044.69;;;23.15;21.96
59272;BME280;45043;51.068;7.026;2022-09-02T16:52:12;100043.22;;;23.04;21.81
59272;BME280;45043;51.068;7.026;2022-09-02T16:55:12;100034.91;;;22.95;21.88
59272;BME280;45043;51.068;7.026;2022-09-02T16:58:17;100031.13;;;22.96;22.05
59272;BME280;45043;51.068;7.026;2022-09-02T17:01:20;100038.13;;;22.97;21.78
59272;BME280;45043;51.068;7.026;2022-09-02T17:04:21;100037.69;;;22.90;22.11
59272;BME280;45043;51.068;7.026;2022-09-02T17:07:21;100033.38;;;22.89;22.51
59272;BME280;45043;51.068;7.026;2022-09-02T17:10:25;100032.84;;;22.87;22.25
59272;BME280;45043;51.068;7.026;2022-09-02T17:13:26;100032.13;;;22.81;22.11
59272;BME280;45043;51.068;7.026;2022-09-02T17:16:29;100035.38;;;22.78;22.40
59272;BME280;45043;51.068;7.026;2022-09-02T17:19:29;100032.69;;;22.73;22.70
59272;BME280;45043;51.068;7.026;2022-09-02T17:22:32;100028.44;;;22.67;22.42
59272;BME280;45043;51.068;7.026;2022-09-02T17:25:32;100039.06;;;22.63;22.43
59272;BME280;45043;51.068;7.026;2022-09-02T17:28:32;100033.41;;;22.60;22.62
59272;BME280;45043;51.068;7.026;2022-09-02T17:31:33;100041.28;;;22.56;22.81
59272;BME280;45043;51.068;7.026;2022-09-02T17:34:34;100037.56;;;22.52;23.19
59272;BME280;45043;51.068;7.026;2022-09-02T17:37:35;100032.47;;;22.45;22.96